createdAt,value
2022-08-22T00:02:41.074Z,21.90
2022-08-22T00:02:59.281Z,22.00
2022-08-22T00:05:32.070Z,22.00
2022-08-22T00:08:08.436Z,21.90
2022-08-22T00:10:53.068Z,22.00
2022-08-22T00:13:27.931Z,22.00
2022-08-22T00:16:16.448Z,22.00
2022-08-22T00:18:51.216Z,22.00
2022-08-22T00:21:32.633Z,22.00
2022-08-22T00:24:05.592Z,22.00
2022-08-22T00:26:45.455Z,22.00
2022-08-22T00:29:25.276Z,22.00
2022-08-22T00:32:06.622Z,21.90
2022-08-22T00:34:36.817Z,21.90
2022-08-22T00:37:15.800Z,21.90
2022-08-22T00:39:52.372Z,21.80
2022-08-22T00:42:40.443Z,21.80
2022-08-22T00:45:19.242Z,21.90
2022-08-22T00:48:04.590Z,21.90
2022-08-22T00:51:05.017Z,21.90
2022-08-22T00:53:52.874Z,21.90
2022-08-22T00:56:36.643Z,21.90
2022-08-22T00:59:23.453Z,21.90
2022-08-22T01:01:53.777Z,21.90
2022-08-22T01:04:40.101Z,21.90
2022-08-22T01:07:24.974Z,21.90
2022-08-22T01:10:32.952Z,21.90
2022-08-22T01:13:41.439Z,21.80
2022-08-22T01:16:38.769Z,21.80
2022-08-22T01:19:17.256Z,22.00
2022-08-22T01:22:05.073Z,22.00
2022-08-22T01:25:18.398Z,22.00
2022-08-22T01:28:16.855Z,21.90
2022-08-22T01:31:02.606Z,22.10
2022-08-22T01:34:13.988Z,22.00
2022-08-22T01:36:57.656Z,22.00
2022-08-22T01:39:59.749Z,21.90
2022-08-22T01:43:05.391Z,21.80
2022-08-22T01:46:01.678Z,21.80
2022-08-22T01:48:38.135Z,21.80
2022-08-22T01:51:27.160Z,21.80
2022-08-22T01:54:03.509Z,21.90
2022-08-22T01:56:42.916Z,21.90
2022-08-22T01:59:17.616Z,21.80
2022-08-22T02:02:14.527Z,21.80
2022-08-22T02:05:07.961Z,21.70
2022-08-22T02:08:02.430Z,21.60
2022-08-22T02:10:57.191Z,21.60
2022-08-22T02:13:51.477Z,21.60
2022-08-22T02:16:21.218Z,21.70
2022-08-22T02:19:04.980Z,21.50
2022-08-22T02:21:47.064Z,21.60
2022-08-22T02:24:23.419Z,21.50
2022-08-22T02:27:24.836Z,21.50
2022-08-22T02:30:18.643Z,21.60
2022-08-22T02:33:10.750Z,21.60
2022-08-22T02:35:46.982Z,21.70
2022-08-22T02:38:58.392Z,21.70
2022-08-22T02:41:44.990Z,21.60
2022-08-22T02:44:25.867Z,21.60
2022-08-22T02:47:26.223Z,21.70
2022-08-22T02:50:04.565Z,21.60
2022-08-22T02:52:45.566Z,21.50
2022-08-22T02:55:18.399Z,21.40
2022-08-22T02:58:00.996Z,21.30
2022-08-22T03:00:33.290Z,21.20
2022-08-22T03:03:14.830Z,21.10
2022-08-22T03:05:44.703Z,21.10
2022-08-22T03:08:17.166Z,21.00
2022-08-22T03:11:19.281Z,21.00
2022-08-22T03:14:09.382Z,20.90
2022-08-22T03:16:45.106Z,21.00
2022-08-22T03:19:42.506Z,20.90
2022-08-22T03:22:16.970Z,20.80
2022-08-22T03:25:19.687Z,20.80
2022-08-22T03:27:57.886Z,20.80
2022-08-22T03:30:51.371Z,20.80
2022-08-22T03:33:22.800Z,20.70
2022-08-22T03:36:03.103Z,20.70
2022-08-22T03:38:45.824Z,20.80
2022-08-22T03:41:24.582Z,20.90
2022-08-22T03:44:00.430Z,20.90
2022-08-22T03:46:52.948Z,20.90
2022-08-22T03:49:38.326Z,20.90
2022-08-22T03:52:12.853Z,20.90
2022-08-22T03:54:45.685Z,21.00
2022-08-22T03:57:24.831Z,21.00
2022-08-22T04:00:36.956Z,21.00
2022-08-22T04:03:38.458Z,21.00
2022-08-22T04:06:11.380Z,21.00
2022-08-22T04:09:12.231Z,21.00
2022-08-22T04:12:00.262Z,21.10
2022-08-22T04:14:45.076Z,21.10
2022-08-22T04:17:50.520Z,20.90
2022-08-22T04:20:50.429Z,20.80
2022-08-22T04:23:41.102Z,20.80
2022-08-22T04:26:17.298Z,20.70
2022-08-22T04:29:30.833Z,20.80
2022-08-22T04:32:10.593Z,20.80
2022-08-22T04:34:48.990Z,20.70
2022-08-22T04:37:31.692Z,20.70
2022-08-22T04:40:16.942Z,20.80
2022-08-22T04:43:06.635Z,20.80
2022-08-22T04:46:08.205Z,20.80
2022-08-22T04:48:37.695Z,20.70
2022-08-22T04:51:04.649Z,20.80
2022-08-22T04:53:54.798Z,20.90
2022-08-22T04:56:24.752Z,20.90
2022-08-22T04:59:07.715Z,21.00
2022-08-22T05:01:55.096Z,21.00
2022-08-22T05:04:30.441Z,21.00
2022-08-22T05:07:05.393Z,21.20
2022-08-22T05:09:35.936Z,21.30
2022-08-22T05:12:09.210Z,21.50
2022-08-22T05:14:41.413Z,21.30
2022-08-22T05:17:15.504Z,21.00
2022-08-22T05:19:50.735Z,21.20
2022-08-22T05:22:21.844Z,21.30
2022-08-22T05:24:53.715Z,21.30
2022-08-22T05:27:35.787Z,21.40
2022-08-22T05:30:09.852Z,21.50
2022-08-22T05:33:03.607Z,21.50
2022-08-22T05:35:40.068Z,21.50
2022-08-22T05:38:12.032Z,21.50
2022-08-22T05:40:39.490Z,21.50
2022-08-22T05:43:11.618Z,21.50
2022-08-22T05:45:40.546Z,21.40
2022-08-22T05:48:20.457Z,21.50
2022-08-22T05:51:00.682Z,21.40
2022-08-22T05:53:37.604Z,21.40
2022-08-22T05:56:13.545Z,21.40
2022-08-22T05:58:43.051Z,21.40
2022-08-22T06:01:21.718Z,21.40
2022-08-22T06:04:11.801Z,21.50
2022-08-22T06:06:56.659Z,21.70
2022-08-22T06:09:53.863Z,21.40
2022-08-22T06:13:01.596Z,21.40
2022-08-22T06:15:44.037Z,21.50
2022-08-22T06:18:17.563Z,21.50
2022-08-22T06:20:49.378Z,21.80
2022-08-22T06:23:23.648Z,21.80
2022-08-22T06:25:52.387Z,21.80
2022-08-22T06:28:25.664Z,21.80
2022-08-22T06:30:55.806Z,21.80
2022-08-22T06:33:27.179Z,21.70
2022-08-22T06:36:28.384Z,21.80
2022-08-22T06:39:13.064Z,21.80
2022-08-22T06:41:49.501Z,21.90
2022-08-22T06:44:21.572Z,21.90
2022-08-22T06:46:52.350Z,21.90
2022-08-22T06:49:23.354Z,21.80
2022-08-22T06:51:51.350Z,22.00
2022-08-22T06:54:25.343Z,21.90
2022-08-22T06:56:55.367Z,22.00
2022-08-22T06:59:30.783Z,22.30
2022-08-22T07:02:22.231Z,22.20
2022-08-22T07:04:50.235Z,22.00
2022-08-22T07:07:20.117Z,21.90
2022-08-22T07:09:51.365Z,21.90
2022-08-22T07:12:20.094Z,22.20
2022-08-22T07:14:52.699Z,22.00
2022-08-22T07:17:27.683Z,21.80
2022-08-22T07:20:05.227Z,21.80
2022-08-22T07:22:35.051Z,21.60
2022-08-22T07:25:08.447Z,21.60
2022-08-22T07:27:38.563Z,21.60
2022-08-22T07:30:14.611Z,22.10
2022-08-22T07:32:43.292Z,22.10
2022-08-22T07:35:22.165Z,22.10
2022-08-22T07:38:19.794Z,22.10
2022-08-22T07:41:14.619Z,22.20
2022-08-22T07:43:51.565Z,22.20
2022-08-22T07:46:42.656Z,22.00
2022-08-22T07:49:23.827Z,21.80
2022-08-22T07:51:58.945Z,21.80
2022-08-22T07:54:41.662Z,21.70
2022-08-22T07:57:13.942Z,21.70
2022-08-22T07:59:47.854Z,21.60
2022-08-22T08:02:17.542Z,21.40
2022-08-22T08:04:48.154Z,21.50
2022-08-22T08:07:19.614Z,21.50
2022-08-22T08:09:52.536Z,21.40
2022-08-22T08:12:26.291Z,21.30
2022-08-22T08:14:56.726Z,21.40
2022-08-22T08:17:32.354Z,21.50
2022-08-22T08:20:09.552Z,21.60
2022-08-22T08:22:38.798Z,21.70
2022-08-22T08:25:07.713Z,21.80
2022-08-22T08:27:56.882Z,21.90
2022-08-22T08:30:46.892Z,22.00
2022-08-22T08:33:25.808Z,22.00
2022-08-22T08:36:37.937Z,22.10
2022-08-22T08:39:19.669Z,22.20
2022-08-22T08:41:59.050Z,22.30
2022-08-22T08:44:38.384Z,22.30
2022-08-22T08:47:32.951Z,22.20
2022-08-22T08:50:29.218Z,22.30
2022-08-22T08:53:03.605Z,22.10
2022-08-22T08:55:54.469Z,22.00
2022-08-22T08:58:51.066Z,22.10
2022-08-22T09:01:29.482Z,22.00
2022-08-22T09:04:06.812Z,22.00
2022-08-22T09:07:18.950Z,22.00
2022-08-22T09:10:09.368Z,22.00
2022-08-22T09:12:55.970Z,22.00
2022-08-22T09:16:04.404Z,22.20
2022-08-22T09:18:41.277Z,22.10
2022-08-22T09:24:23.185Z,22.10
2022-08-22T09:27:20.257Z,22.00
2022-08-22T09:29:54.818Z,22.00
2022-08-22T09:33:01.071Z,22.00
2022-08-22T09:35:31.070Z,22.00
2022-08-22T09:38:01.819Z,22.00
2022-08-22T09:40:16.449Z,22.20
2022-08-22T09:40:49.963Z,22.10
2022-08-22T09:43:37.581Z,22.10
2022-08-22T09:46:31.361Z,22.10
2022-08-22T09:49:36.066Z,22.10
2022-08-22T09:52:15.662Z,22.10
2022-08-22T09:55:08.679Z,22.30
2022-08-22T09:57:52.388Z,22.40
2022-08-22T10:00:25.782Z,22.30
2022-08-22T10:03:07.863Z,22.30
2022-08-22T10:05:43.988Z,22.20
2022-08-22T10:08:19.704Z,22.20
2022-08-22T10:11:07.942Z,22.30
2022-08-22T10:14:05.060Z,22.30
2022-08-22T10:16:48.400Z,22.40
2022-08-22T10:19:24.596Z,22.50
2022-08-22T10:22:31.127Z,22.30
2022-08-22T10:25:07.581Z,22.30
2022-08-22T10:28:02.991Z,22.20
2022-08-22T10:30:52.240Z,22.20
2022-08-22T10:33:33.234Z,22.20
2022-08-22T10:36:11.724Z,22.30
2022-08-22T10:38:50.471Z,22.30
2022-08-22T10:41:45.533Z,22.20
2022-08-22T10:44:13.096Z,22.20
2022-08-22T10:46:48.723Z,22.10
2022-08-22T10:49:34.706Z,22.20
2022-08-22T10:52:18.813Z,22.20
2022-08-22T10:55:00.969Z,22.20
2022-08-22T10:57:40.675Z,22.30
2022-08-22T11:00:31.386Z,22.30
2022-08-22T11:03:25.093Z,22.30
2022-08-22T11:05:58.563Z,22.10
2022-08-22T11:08:54.218Z,22.20
2022-08-22T11:11:45.590Z,22.30
2022-08-22T11:14:51.785Z,22.20
2022-08-22T11:17:31.185Z,22.30
2022-08-22T11:20:31.965Z,22.40
2022-08-22T11:23:11.805Z,22.50
2022-08-22T11:26:04.910Z,22.50
2022-08-22T11:28:53.276Z,22.60
2022-08-22T11:31:24.281Z,22.80
2022-08-22T11:34:20.578Z,22.90
2022-08-22T11:37:00.137Z,23.00
2022-08-22T11:39:51.433Z,23.00
2022-08-22T11:42:33.391Z,23.00
2022-08-22T11:45:05.045Z,23.10
2022-08-22T11:47:53.114Z,23.30
2022-08-22T11:50:21.616Z,23.50
2022-08-22T11:53:24.365Z,23.50
2022-08-22T11:56:12.701Z,23.60
2022-08-22T11:59:10.336Z,23.40
2022-08-22T12:01:59.409Z,23.50
2022-08-22T12:04:46.616Z,23.60
2022-08-22T12:07:16.206Z,23.70
2022-08-22T12:09:52.101Z,23.70
2022-08-22T12:12:25.140Z,23.70
2022-08-22T12:15:19.487Z,23.80
2022-08-22T12:18:09.958Z,23.60
2022-08-22T12:20:57.743Z,23.40
2022-08-22T12:23:53.434Z,23.50
2022-08-22T12:26:47.553Z,23.60
2022-08-22T12:29:39.930Z,23.60
2022-08-22T12:32:43.835Z,23.80
2022-08-22T12:35:41.276Z,23.60
2022-08-22T12:38:26.682Z,23.60
2022-08-22T12:41:28.491Z,23.50
2022-08-22T12:44:29.251Z,23.80
2022-08-22T12:47:34.320Z,23.80
2022-08-22T12:50:19.616Z,23.60
2022-08-22T12:53:00.690Z,23.40
2022-08-22T12:55:30.688Z,23.10
2022-08-22T12:58:11.635Z,22.90
2022-08-22T13:00:43.984Z,23.10
2022-08-22T13:03:29.706Z,23.30
2022-08-22T13:06:00.517Z,23.40
2022-08-22T13:08:44.199Z,23.50
2022-08-22T13:11:22.338Z,23.70
2022-08-22T13:13:59.183Z,23.60
2022-08-22T13:16:37.096Z,23.40
2022-08-22T13:19:13.556Z,23.60
2022-08-22T13:21:48.653Z,23.60
2022-08-22T13:24:22.772Z,23.70
2022-08-22T13:27:11.350Z,23.60
2022-08-22T13:30:07.291Z,23.40
2022-08-22T13:32:47.309Z,23.50
2022-08-22T13:35:35.740Z,23.50
2022-08-22T13:38:13.481Z,23.50
2022-08-22T13:40:47.114Z,23.60
2022-08-22T13:43:23.960Z,23.60
2022-08-22T13:45:57.002Z,23.80
2022-08-22T13:48:51.030Z,23.90
2022-08-22T13:51:50.299Z,24.10
2022-08-22T13:54:25.831Z,23.90
2022-08-22T13:57:11.611Z,23.80
2022-08-22T13:59:54.224Z,23.60
2022-08-22T14:02:24.633Z,23.50
2022-08-22T14:05:05.799Z,23.60
2022-08-22T14:07:58.789Z,23.80
2022-08-22T14:10:32.479Z,23.60
2022-08-22T14:13:00.495Z,23.50
2022-08-22T14:15:45.353Z,23.60
2022-08-22T14:18:20.214Z,23.70
2022-08-22T14:21:25.236Z,24.00
2022-08-22T14:23:58.610Z,24.20
2022-08-22T14:26:32.699Z,24.30
2022-08-22T14:29:15.067Z,24.10
2022-08-22T14:31:54.654Z,23.80
2022-08-22T14:34:22.238Z,23.70
2022-08-22T14:37:01.781Z,23.40
2022-08-22T14:39:46.961Z,23.30
2022-08-22T14:42:26.565Z,23.30
2022-08-22T14:45:02.157Z,23.30
2022-08-22T14:48:14.281Z,23.40
2022-08-22T14:50:46.178Z,23.40
2022-08-22T14:53:24.984Z,23.40
2022-08-22T14:56:08.354Z,23.40
2022-08-22T14:59:07.639Z,23.40
2022-08-22T15:01:54.463Z,23.20
2022-08-22T15:04:33.054Z,23.20
2022-08-22T15:07:02.264Z,23.20
2022-08-22T15:09:41.998Z,23.20
2022-08-22T15:12:55.761Z,23.20
2022-08-22T15:15:49.269Z,23.20
2022-08-22T15:18:34.791Z,23.00
2022-08-22T15:21:01.836Z,23.10
2022-08-22T15:23:32.065Z,23.10
2022-08-22T15:26:25.884Z,23.20
2022-08-22T15:29:04.318Z,23.20
2022-08-22T15:31:31.861Z,23.00
2022-08-22T15:34:12.406Z,22.90
2022-08-22T15:37:09.920Z,23.20
2022-08-22T15:40:11.568Z,23.30
2022-08-22T15:42:47.105Z,23.40
2022-08-22T15:45:36.214Z,23.30
2022-08-22T15:48:23.720Z,23.40
2022-08-22T15:51:01.437Z,23.10
2022-08-22T15:54:13.184Z,23.20
2022-08-22T15:56:53.015Z,23.10
2022-08-22T15:59:54.126Z,23.10
2022-08-22T16:02:40.215Z,23.10
2022-08-22T16:05:10.639Z,23.00
2022-08-22T16:07:39.596Z,22.90
2022-08-22T16:10:27.159Z,22.70
2022-08-22T16:13:14.945Z,22.80
2022-08-22T16:15:56.401Z,22.80
2022-08-22T16:18:42.744Z,22.70
2022-08-22T16:21:22.872Z,22.70
2022-08-22T16:23:58.251Z,22.70
2022-08-22T16:26:31.120Z,22.70
2022-08-22T16:29:04.158Z,22.60
2022-08-22T16:31:49.261Z,22.50
2022-08-22T16:34:19.202Z,22.60
2022-08-22T16:36:55.039Z,22.50
2022-08-22T16:39:21.966Z,22.40
2022-08-22T16:41:56.315Z,22.30
2022-08-22T16:44:29.090Z,22.30
2022-08-22T16:47:08.117Z,22.20
2022-08-22T16:49:40.726Z,22.30
2022-08-22T16:52:25.854Z,22.30
2022-08-22T16:54:52.712Z,22.10
2022-08-22T16:58:06.002Z,22.10
2022-08-22T17:00:41.976Z,22.00
2022-08-22T17:03:18.210Z,22.00
2022-08-22T17:05:57.034Z,22.00
2022-08-22T17:08:27.036Z,22.10
2022-08-22T17:11:12.764Z,22.10
2022-08-22T17:13:54.757Z,22.00
2022-08-22T17:16:37.142Z,21.90
2022-08-22T17:19:43.000Z,21.90
2022-08-22T17:22:19.088Z,22.00
2022-08-22T17:24:56.378Z,21.90
2022-08-22T17:27:45.038Z,21.90
2022-08-22T17:30:32.461Z,21.80
2022-08-22T17:33:52.215Z,21.80
2022-08-22T17:36:40.514Z,21.80
2022-08-22T17:39:44.558Z,21.70
2022-08-22T17:42:26.632Z,21.60
2022-08-22T17:45:02.784Z,21.50
2022-08-22T17:47:58.621Z,21.50
2022-08-22T17:50:30.852Z,21.50
2022-08-22T17:53:05.596Z,21.50
2022-08-22T17:56:03.188Z,21.50
2022-08-22T17:58:43.700Z,21.50
2022-08-22T18:01:47.773Z,21.50
2022-08-22T18:04:45.642Z,21.50
2022-08-22T18:07:14.344Z,21.40
2022-08-22T18:10:04.731Z,21.40
2022-08-22T18:12:41.010Z,21.50
2022-08-22T18:15:23.080Z,21.40
2022-08-22T18:18:07.030Z,21.40
2022-08-22T18:20:44.993Z,21.30
2022-08-22T18:23:36.206Z,21.30
2022-08-22T18:26:27.055Z,21.30
2022-08-22T18:29:10.473Z,21.40
2022-08-22T18:32:11.593Z,21.40
2022-08-22T18:35:28.845Z,21.30
2022-08-22T18:38:19.916Z,21.30
2022-08-22T18:40:50.495Z,21.30
2022-08-22T18:43:24.085Z,21.30
2022-08-22T18:45:51.324Z,21.20
2022-08-22T18:48:31.793Z,21.20
2022-08-22T18:51:24.669Z,21.20
2022-08-22T18:54:19.486Z,21.30
2022-08-22T18:56:58.182Z,21.30
2022-08-22T18:59:46.900Z,21.20
2022-08-22T19:02:34.775Z,21.20
2022-08-22T19:05:30.733Z,21.20
2022-08-22T19:08:07.984Z,21.20
2022-08-22T19:10:55.518Z,21.20
2022-08-22T19:13:27.993Z,21.10
2022-08-22T19:16:10.413Z,21.20
2022-08-22T19:18:51.568Z,21.20
2022-08-22T19:21:51.992Z,21.30
2022-08-22T19:24:28.019Z,21.20
2022-08-22T19:27:10.246Z,21.20
2022-08-22T19:29:37.126Z,21.20
2022-08-22T19:32:12.916Z,21.20
2022-08-22T19:34:47.734Z,21.20
2022-08-22T19:37:32.834Z,21.20
2022-08-22T19:40:10.391Z,21.20
2022-08-22T19:42:41.642Z,21.10
2022-08-22T19:45:17.786Z,21.10
2022-08-22T19:48:01.209Z,21.10
2022-08-22T19:50:35.387Z,21.10
2022-08-22T19:53:18.464Z,21.10
2022-08-22T19:56:25.873Z,21.20
2022-08-22T19:59:17.557Z,21.20
2022-08-22T20:02:02.013Z,21.10
2022-08-22T20:04:31.905Z,21.10
2022-08-22T20:07:26.135Z,21.20
2022-08-22T20:10:14.866Z,21.20
2022-08-22T20:13:05.543Z,21.20
2022-08-22T20:16:07.253Z,21.20
2022-08-22T20:19:07.254Z,21.20
2022-08-22T20:22:02.461Z,21.20
2022-08-22T20:24:39.967Z,21.20
2022-08-22T20:27:17.600Z,21.20
2022-08-22T20:30:06.386Z,21.20
2022-08-22T20:32:43.316Z,21.20
2022-08-22T20:35:21.724Z,21.20
2022-08-22T20:38:15.697Z,21.20
2022-08-22T20:40:57.862Z,21.20
2022-08-22T20:43:56.141Z,21.10
2022-08-22T20:46:53.464Z,21.10
2022-08-22T20:49:30.062Z,21.10
2022-08-22T20:52:03.431Z,21.20
2022-08-22T20:54:38.007Z,21.20
2022-08-22T20:57:19.907Z,21.20
2022-08-22T21:00:07.627Z,21.30
2022-08-22T21:02:39.309Z,21.30
2022-08-22T21:05:22.421Z,21.30
2022-08-22T21:08:04.392Z,21.20
2022-08-22T21:10:51.377Z,21.20
2022-08-22T21:13:34.477Z,21.20
2022-08-22T21:16:19.699Z,21.20
2022-08-22T21:18:49.495Z,21.20
2022-08-22T21:21:34.399Z,21.20
2022-08-22T21:24:06.624Z,21.20
2022-08-22T21:26:51.823Z,21.20
2022-08-22T21:29:23.490Z,21.10
2022-08-22T21:31:54.373Z,21.10
2022-08-22T21:34:42.608Z,21.10
2022-08-22T21:37:40.556Z,21.10
2022-08-22T21:40:15.362Z,21.00
2022-08-22T21:42:59.686Z,21.00
2022-08-22T21:45:34.465Z,21.00
2022-08-22T21:48:01.903Z,21.00
2022-08-22T21:50:38.360Z,20.90
2022-08-22T21:53:27.814Z,21.00
2022-08-22T21:56:15.174Z,21.10
2022-08-22T21:58:42.801Z,21.10
2022-08-22T22:01:32.795Z,21.10
2022-08-22T22:04:00.175Z,21.10
2022-08-22T22:06:27.828Z,21.10
2022-08-22T22:08:55.302Z,21.00
2022-08-22T22:11:22.378Z,21.00
2022-08-22T22:13:49.333Z,21.00
2022-08-22T22:16:26.886Z,21.10
2022-08-22T22:18:53.957Z,21.00
2022-08-22T22:21:21.145Z,21.00
2022-08-22T22:23:49.357Z,20.90
2022-08-22T22:26:16.329Z,20.90
2022-08-22T22:28:50.227Z,20.90
2022-08-22T22:31:18.381Z,20.90
2022-08-22T22:33:45.380Z,21.00
2022-08-22T22:36:23.590Z,21.00
2022-08-22T22:38:52.027Z,20.90
2022-08-22T22:41:20.452Z,20.90
2022-08-22T22:43:47.401Z,20.90
2022-08-22T22:46:14.437Z,20.90
2022-08-22T22:48:41.341Z,20.80
2022-08-22T22:51:10.902Z,20.80
2022-08-22T22:53:42.876Z,20.90
2022-08-22T22:56:14.262Z,20.90
2022-08-22T22:58:43.249Z,20.90
2022-08-22T23:01:13.013Z,21.00
2022-08-22T23:03:40.036Z,20.90
2022-08-22T23:06:34.382Z,20.80
2022-08-22T23:09:01.256Z,21.00
2022-08-22T23:11:30.614Z,21.10
2022-08-22T23:13:57.690Z,21.10
2022-08-22T23:16:35.046Z,21.00
2022-08-22T23:19:11.621Z,20.90
2022-08-22T23:21:39.149Z,20.90
2022-08-22T23:24:06.749Z,20.90
2022-08-22T23:26:33.742Z,20.90
2022-08-22T23:29:03.299Z,20.90
2022-08-22T23:31:33.366Z,20.80
2022-08-22T23:34:08.495Z,20.70
2022-08-22T23:36:36.288Z,20.70
2022-08-22T23:39:05.292Z,20.80
2022-08-22T23:41:32.772Z,20.80
2022-08-22T23:43:59.652Z,20.80
2022-08-22T23:46:27.718Z,20.80
2022-08-22T23:48:58.160Z,20.80
2022-08-22T23:51:26.145Z,20.80
2022-08-22T23:53:55.075Z,20.80
2022-08-22T23:56:36.788Z,20.80
2022-08-22T23:59:06.910Z,20.80
